Time;durP1;ratioP1;P1;durP2;ratioP2;P2;SDS_P1;SDS_P2;PMS_P1;PMS_P2;Temp;Humidity;BMP_temperature;BMP_pressure;BME280_temperature;BME280_humidity;BME280_pressure;Samples;Min_cycle;Max_cycle;Signal;HPM_P1;HPM_P2
2022/04/23 00:00:34;;;;;;;9.40;4.40;;;13.20;99.90;;;;;;5052699;28;20112;-63
2022/04/23 00:02:59;;;;;;;7.82;4.15;;;13.10;99.90;;;;;;5053082;28;20400;-62
2022/04/23 00:05:25;;;;;;;9.68;4.35;;;13.10;99.90;;;;;;5053293;28;20021;-62
2022/04/23 00:07:51;;;;;;;10.90;4.50;;;13.10;99.90;;;;;;5052807;28;20041;-63
2022/04/23 00:10:17;;;;;;;8.70;4.28;;;13.00;99.90;;;;;;5052747;28;20457;-63
2022/04/23 00:12:46;;;;;;;10.43;4.32;;;13.00;99.90;;;;;;5051743;28;20056;-63
2022/04/23 00:15:12;;;;;;;10.15;4.82;;;13.00;99.90;;;;;;5053183;28;20024;-62
2022/04/23 00:17:37;;;;;;;9.48;5.35;;;13.00;99.90;;;;;;5044318;28;20033;-63
2022/04/23 00:20:05;;;;;;;9.07;4.63;;;13.00;99.90;;;;;;5025952;28;20049;-64
2022/04/23 00:22:31;;;;;;;12.13;6.43;;;12.90;99.90;;;;;;5024669;28;20047;-63
2022/04/23 00:24:57;;;;;;;11.13;5.30;;;12.90;99.90;;;;;;5022966;28;20029;-63
2022/04/23 00:27:23;;;;;;;10.57;5.22;;;12.90;99.90;;;;;;5032700;28;20132;-65
2022/04/23 00:29:48;;;;;;;9.75;4.63;;;12.90;99.90;;;;;;5038299;28;20104;-63
2022/04/23 00:32:14;;;;;;;12.25;5.50;;;12.80;99.90;;;;;;5019703;28;20055;-62
2022/04/23 00:34:40;;;;;;;10.43;4.90;;;12.80;99.90;;;;;;5021153;28;20041;-65
2022/04/23 00:37:05;;;;;;;11.57;5.40;;;12.80;99.90;;;;;;5019620;28;20029;-65
2022/04/23 00:39:32;;;;;;;10.13;5.20;;;12.80;99.90;;;;;;5020639;28;20128;-64
2022/04/23 00:42:00;;;;;;;10.80;5.82;;;12.80;99.90;;;;;;5039677;28;20342;-64
2022/04/23 00:44:26;;;;;;;14.48;5.20;;;12.70;99.90;;;;;;5042711;28;20029;-66
2022/04/23 00:46:51;;;;;;;11.85;5.65;;;12.70;99.90;;;;;;5050129;28;20361;-66
2022/04/23 00:49:17;;;;;;;10.75;5.72;;;12.70;99.90;;;;;;5050692;28;20354;-63
2022/04/23 00:51:43;;;;;;;10.43;5.68;;;12.70;99.90;;;;;;5054719;28;20449;-66
2022/04/23 00:54:10;;;;;;;12.10;6.28;;;12.70;99.90;;;;;;5052235;28;20401;-64
2022/04/23 00:56:37;;;;;;;12.75;6.20;;;12.70;99.90;;;;;;5051333;28;20036;-64
2022/04/23 00:59:08;;;;;;;12.52;5.53;;;12.60;99.90;;;;;;5041340;28;20029;-63
2022/04/23 01:01:34;;;;;;;11.75;6.50;;;12.60;99.90;;;;;;5049687;28;20029;-65
2022/04/23 01:04:02;;;;;;;15.77;6.88;;;12.60;99.90;;;;;;5049751;28;20033;-64
2022/04/23 01:06:34;;;;;;;16.90;7.70;;;12.60;99.90;;;;;;5041016;28;20017;-63
2022/04/23 01:09:03;;;;;;;15.00;7.65;;;12.60;99.90;;;;;;5045626;28;20025;-65
2022/04/23 01:11:28;;;;;;;15.98;7.47;;;12.60;99.90;;;;;;5051444;28;20025;-63
2022/04/23 01:13:55;;;;;;;15.13;7.40;;;12.60;99.90;;;;;;5054731;28;20029;-64
2022/04/23 01:16:21;;;;;;;17.88;8.23;;;12.70;99.90;;;;;;5052560;28;20447;-63
2022/04/23 01:18:46;;;;;;;18.65;7.28;;;12.70;99.90;;;;;;5055198;28;20057;-64
2022/04/23 01:21:13;;;;;;;14.10;7.30;;;12.70;99.90;;;;;;5051772;28;20428;-63
2022/04/23 01:23:40;;;;;;;14.93;7.85;;;12.60;99.90;;;;;;5055385;28;20028;-66
2022/04/23 01:26:07;;;;;;;15.30;7.70;;;12.60;99.90;;;;;;5055231;28;20109;-63
2022/04/23 01:28:35;;;;;;;15.80;7.93;;;12.60;99.90;;;;;;5054371;28;20036;-63
2022/04/23 01:31:00;;;;;;;16.60;8.00;;;12.60;99.90;;;;;;5053106;28;20021;-67
2022/04/23 01:33:26;;;;;;;16.75;8.25;;;12.50;99.90;;;;;;5044141;28;20060;-66
2022/04/23 01:35:52;;;;;;;15.35;7.88;;;12.60;99.90;;;;;;5034525;28;20030;-65
2022/04/23 01:38:17;;;;;;;16.70;8.23;;;12.50;99.90;;;;;;5036007;28;20056;-63
2022/04/23 01:40:43;;;;;;;11.90;6.75;;;12.50;99.90;;;;;;5048011;28;20045;-64
2022/04/23 01:43:09;;;;;;;15.23;8.15;;;12.50;99.90;;;;;;5049727;28;20021;-65
2022/04/23 01:45:36;;;;;;;15.70;8.18;;;12.50;99.90;;;;;;5054841;28;20025;-64
2022/04/23 01:48:02;;;;;;;14.13;7.68;;;12.40;99.90;;;;;;5036158;28;20095;-64
2022/04/23 01:50:27;;;;;;;18.00;8.30;;;12.40;99.90;;;;;;5041725;28;20025;-63
2022/04/23 01:52:53;;;;;;;15.00;8.63;;;12.40;99.90;;;;;;5050066;28;20032;-65
2022/04/23 01:55:19;;;;;;;16.25;8.55;;;12.40;99.90;;;;;;5054721;28;20053;-63
2022/04/23 01:57:44;;;;;;;19.70;8.82;;;12.30;99.90;;;;;;5054798;28;20033;-65
2022/04/23 02:00:13;;;;;;;17.05;9.27;;;12.30;99.90;;;;;;5053031;28;20427;-63
2022/04/23 02:02:42;;;;;;;17.40;8.93;;;12.30;99.90;;;;;;5051721;28;20029;-64
2022/04/23 02:05:08;;;;;;;17.15;9.27;;;12.30;99.90;;;;;;5055546;28;20025;-64
2022/04/23 02:07:37;;;;;;;17.23;9.82;;;12.30;99.90;;;;;;5054213;28;20029;-64
2022/04/23 02:10:05;;;;;;;19.92;10.07;;;12.30;99.90;;;;;;5053270;28;20083;-66
2022/04/23 02:12:30;;;;;;;19.52;10.63;;;12.30;99.90;;;;;;5053058;28;20128;-65
2022/04/23 02:14:56;;;;;;;21.63;9.95;;;12.30;99.90;;;;;;5039829;28;20564;-62
2022/04/23 02:17:21;;;;;;;22.15;10.82;;;12.40;99.90;;;;;;5053078;28;20051;-63
2022/04/23 02:19:47;;;;;;;21.75;11.25;;;12.40;99.90;;;;;;5054276;28;20389;-64
2022/04/23 02:22:12;;;;;;;19.95;11.27;;;12.40;99.90;;;;;;5054436;28;20060;-66
2022/04/23 02:24:38;;;;;;;20.85;11.82;;;12.40;99.90;;;;;;5053210;28;20052;-63
2022/04/23 02:27:03;;;;;;;20.75;11.75;;;12.50;99.90;;;;;;5052330;28;20049;-62
2022/04/23 02:29:29;;;;;;;19.48;10.82;;;12.50;99.90;;;;;;5053891;28;20032;-66
2022/04/23 02:31:54;;;;;;;20.63;11.40;;;12.50;99.90;;;;;;5054407;28;20033;-67
2022/04/23 02:34:21;;;;;;;23.88;11.88;;;12.50;99.90;;;;;;5038091;28;20029;-65
2022/04/23 02:36:47;;;;;;;21.33;11.77;;;12.50;99.90;;;;;;5042175;28;20036;-66
2022/04/23 02:39:13;;;;;;;22.33;13.32;;;12.60;99.90;;;;;;5054811;28;20106;-65
2022/04/23 02:41:39;;;;;;;24.15;12.20;;;12.60;99.90;;;;;;5050094;28;20055;-64
2022/04/23 02:44:05;;;;;;;21.13;11.98;;;12.60;99.90;;;;;;5044776;28;20029;-64
2022/04/23 02:46:30;;;;;;;22.05;12.93;;;12.60;99.90;;;;;;5045079;28;20021;-65
2022/04/23 02:48:58;;;;;;;23.10;13.10;;;12.60;99.90;;;;;;5051239;28;20037;-64
2022/04/23 02:51:23;;;;;;;23.95;13.73;;;12.60;99.90;;;;;;5041108;28;20041;-65
2022/04/23 02:53:49;;;;;;;23.85;12.02;;;12.60;99.90;;;;;;5042591;28;20039;-67
2022/04/23 02:56:17;;;;;;;25.58;14.13;;;12.60;99.90;;;;;;5040187;28;20091;-68
2022/04/23 02:58:43;;;;;;;22.33;13.55;;;12.60;99.90;;;;;;5036432;28;20029;-63
2022/04/23 03:01:10;;;;;;;23.60;14.05;;;12.70;99.90;;;;;;5034945;28;20087;-63
2022/04/23 03:03:40;;;;;;;24.13;13.73;;;12.60;99.90;;;;;;5042287;28;20445;-64
2022/04/23 03:06:07;;;;;;;23.70;13.73;;;12.60;99.90;;;;;;5050527;28;20021;-64
2022/04/23 03:08:35;;;;;;;24.42;14.40;;;12.70;99.90;;;;;;5039033;28;20033;-64
2022/04/23 03:11:00;;;;;;;26.13;15.88;;;12.70;99.90;;;;;;5034568;28;20357;-66
2022/04/23 03:13:26;;;;;;;25.23;14.90;;;12.70;99.90;;;;;;5034793;28;20033;-67
2022/04/23 03:15:52;;;;;;;25.05;14.43;;;12.70;99.90;;;;;;5034098;28;20453;-63
2022/04/23 03:18:18;;;;;;;25.30;15.07;;;12.70;99.90;;;;;;5047769;28;20025;-64
2022/04/23 03:20:45;;;;;;;25.92;15.60;;;12.70;99.90;;;;;;5049175;28;20485;-65
2022/04/23 03:23:12;;;;;;;27.45;15.82;;;12.70;99.90;;;;;;5047420;28;20036;-64
2022/04/23 03:25:38;;;;;;;29.30;16.27;;;12.70;99.90;;;;;;5051219;28;20021;-66
2022/04/23 03:28:04;;;;;;;25.42;15.85;;;12.60;99.90;;;;;;5050194;28;20048;-67
2022/04/23 03:30:30;;;;;;;22.77;14.82;;;12.60;99.90;;;;;;5053024;28;20029;-61
2022/04/23 03:32:56;;;;;;;28.77;16.02;;;12.50;99.90;;;;;;5051986;28;20469;-62
2022/04/23 03:35:22;;;;;;;29.13;16.20;;;12.50;99.90;;;;;;5044891;28;20046;-65
2022/04/23 03:37:51;;;;;;;26.95;15.77;;;12.50;99.90;;;;;;5045406;28;20154;-63
2022/04/23 03:40:16;;;;;;;27.05;15.57;;;12.40;99.90;;;;;;5039895;28;20489;-64
2022/04/23 03:42:45;;;;;;;26.23;16.58;;;12.30;99.90;;;;;;5051000;28;20056;-65
2022/04/23 03:45:11;;;;;;;24.88;16.15;;;12.30;99.90;;;;;;5051060;28;20069;-65
2022/04/23 03:47:36;;;;;;;25.98;15.93;;;12.20;99.90;;;;;;5049551;28;20033;-61
2022/04/23 03:50:07;;;;;;;28.08;17.55;;;12.20;99.90;;;;;;5053603;28;20457;-64
2022/04/23 03:52:33;;;;;;;27.10;16.50;;;12.10;99.90;;;;;;5035777;28;20041;-62
2022/04/23 03:54:59;;;;;;;27.90;17.35;;;12.10;99.90;;;;;;5033829;28;20037;-66
2022/04/23 03:57:25;;;;;;;26.90;15.93;;;12.10;99.90;;;;;;5040928;28;20103;-62
2022/04/23 03:59:50;;;;;;;27.63;16.13;;;12.10;99.90;;;;;;5033176;28;20442;-64
2022/04/23 04:02:16;;;;;;;27.40;16.73;;;12.00;99.90;;;;;;5047804;28;20071;-66
2022/04/23 04:04:42;;;;;;;26.77;16.42;;;12.00;99.90;;;;;;5053204;28;20027;-66
2022/04/23 04:07:08;;;;;;;26.33;16.02;;;11.90;99.90;;;;;;5048780;28;20028;-64
2022/04/23 04:09:34;;;;;;;25.38;15.10;;;11.90;99.90;;;;;;5053380;28;20013;-65
2022/04/23 04:12:03;;;;;;;30.48;18.15;;;11.80;99.90;;;;;;5048662;28;20459;-66
2022/04/23 04:14:34;;;;;;;30.30;17.55;;;11.70;99.90;;;;;;5040088;28;20022;-62
2022/04/23 04:17:01;;;;;;;26.20;17.05;;;11.70;99.90;;;;;;5043662;28;20052;-63
2022/04/23 04:19:28;;;;;;;26.80;14.35;;;11.70;99.90;;;;;;5052940;28;20031;-64
2022/04/23 04:21:54;;;;;;;28.50;17.55;;;11.60;99.90;;;;;;5051572;28;20025;-62
2022/04/23 04:24:20;;;;;;;29.35;17.27;;;11.60;99.90;;;;;;5053005;28;20025;-65
2022/04/23 04:26:50;;;;;;;27.15;16.55;;;11.60;99.90;;;;;;5046872;28;20053;-66
2022/04/23 04:29:16;;;;;;;27.70;16.42;;;11.60;99.90;;;;;;5037210;28;20092;-65
2022/04/23 04:31:51;;;;;;;29.17;16.98;;;11.50;99.90;;;;;;5040729;28;20021;-66
2022/04/23 04:34:21;;;;;;;28.40;16.42;;;11.50;99.90;;;;;;5051239;28;20048;-65
2022/04/23 04:36:48;;;;;;;29.17;16.95;;;11.50;99.90;;;;;;5044988;28;20428;-64
2022/04/23 04:39:15;;;;;;;28.15;16.80;;;11.50;99.90;;;;;;5051962;28;20025;-64
2022/04/23 04:41:41;;;;;;;26.40;16.33;;;11.50;99.90;;;;;;5052186;28;20075;-67
2022/04/23 04:44:07;;;;;;;24.42;15.75;;;11.50;99.90;;;;;;5046130;28;20167;-63
2022/04/23 04:46:34;;;;;;;26.40;15.07;;;11.50;99.90;;;;;;5043522;28;20516;-64
2022/04/23 04:49:00;;;;;;;27.38;16.88;;;11.40;99.90;;;;;;5044142;28;20052;-63
2022/04/23 04:51:25;;;;;;;24.08;15.57;;;11.50;99.90;;;;;;5051214;28;20064;-64
2022/04/23 04:53:54;;;;;;;26.02;15.00;;;11.50;99.90;;;;;;5033349;28;20060;-65
2022/04/23 04:56:20;;;;;;;28.40;17.02;;;11.50;99.90;;;;;;5033550;28;20026;-66
2022/04/23 04:58:46;;;;;;;26.33;15.48;;;11.50;99.90;;;;;;5040855;28;20480;-66
2022/04/23 05:01:12;;;;;;;27.52;16.55;;;11.50;99.90;;;;;;5055614;28;20033;-63
2022/04/23 05:03:39;;;;;;;26.98;16.48;;;11.60;99.90;;;;;;5044552;28;20045;-66
2022/04/23 05:06:06;;;;;;;25.88;15.00;;;11.60;99.90;;;;;;5047121;28;20025;-61
2022/04/23 05:08:31;;;;;;;25.23;15.52;;;11.60;99.90;;;;;;5052957;28;20035;-63
2022/04/23 05:10:57;;;;;;;29.33;17.10;;;11.70;99.90;;;;;;5051792;28;20021;-64
2022/04/23 05:13:22;;;;;;;25.35;15.38;;;11.70;99.90;;;;;;5051530;28;20500;-66
2022/04/23 05:15:48;;;;;;;23.95;15.13;;;11.70;99.90;;;;;;5052232;28;20075;-65
2022/04/23 05:18:14;;;;;;;23.15;13.98;;;11.70;99.90;;;;;;5050541;28;20020;-63
2022/04/23 05:20:40;;;;;;;24.90;15.45;;;11.70;99.90;;;;;;5051168;28;20048;-65
2022/04/23 05:23:06;;;;;;;26.05;16.00;;;11.80;99.90;;;;;;5050530;28;20032;-66
2022/04/23 05:25:32;;;;;;;26.45;15.27;;;11.80;99.90;;;;;;5052108;28;20456;-65
2022/04/23 05:27:58;;;;;;;27.52;15.23;;;11.80;99.90;;;;;;5041434;28;20069;-63
2022/04/23 05:30:24;;;;;;;22.77;13.77;;;11.80;99.90;;;;;;5045732;28;20051;-68
2022/04/23 05:32:49;;;;;;;23.38;13.45;;;11.90;99.90;;;;;;5048382;28;20457;-64
2022/04/23 05:35:15;;;;;;;24.88;13.00;;;11.90;99.90;;;;;;5051615;28;20433;-63
2022/04/23 05:37:41;;;;;;;22.95;13.70;;;12.00;99.90;;;;;;5051677;28;20029;-65
2022/04/23 05:40:07;;;;;;;21.08;13.43;;;12.00;99.90;;;;;;5052731;28;20029;-66
2022/04/23 05:42:33;;;;;;;21.60;12.40;;;12.00;99.90;;;;;;5051343;28;20209;-65
2022/04/23 05:44:59;;;;;;;19.65;12.52;;;12.10;99.90;;;;;;5041830;28;20461;-63
2022/04/23 05:47:24;;;;;;;23.67;12.45;;;12.20;99.90;;;;;;5045396;28;20025;-66
2022/04/23 05:49:50;;;;;;;23.05;13.35;;;12.20;99.90;;;;;;5042564;28;20032;-63
2022/04/23 05:52:15;;;;;;;21.42;12.10;;;12.20;99.90;;;;;;5035013;28;20104;-66
2022/04/23 05:54:41;;;;;;;20.48;12.38;;;12.20;99.90;;;;;;5043195;28;20029;-62
2022/04/23 05:57:06;;;;;;;22.27;13.15;;;12.30;99.90;;;;;;5043288;28;20033;-64
2022/04/23 05:59:32;;;;;;;22.13;13.27;;;12.30;99.90;;;;;;5054962;28;20100;-62
2022/04/23 06:01:58;;;;;;;21.48;14.13;;;12.40;99.90;;;;;;5055100;28;20031;-65
2022/04/23 06:04:25;;;;;;;18.98;11.23;;;12.40;99.90;;;;;;5054861;28;20044;-66
2022/04/23 06:06:51;;;;;;;19.20;11.95;;;12.50;99.90;;;;;;5040066;28;20446;-65
2022/04/23 06:09:16;;;;;;;21.67;12.85;;;12.60;99.90;;;;;;5036198;28;20032;-63
2022/04/23 06:11:42;;;;;;;20.25;11.95;;;12.60;99.90;;;;;;5036017;28;20127;-65
2022/04/23 06:14:08;;;;;;;19.20;11.55;;;12.70;99.90;;;;;;5052353;28;20021;-65
2022/04/23 06:16:36;;;;;;;19.15;11.80;;;12.80;99.90;;;;;;5054238;28;20039;-65
2022/04/23 06:19:01;;;;;;;18.70;11.15;;;12.90;99.90;;;;;;5054758;28;20480;-67
2022/04/23 06:21:27;;;;;;;19.67;11.85;;;12.90;99.90;;;;;;5054000;28;20040;-64
2022/04/23 06:23:52;;;;;;;21.63;12.05;;;13.00;99.90;;;;;;5054875;28;20521;-68
2022/04/23 06:26:18;;;;;;;20.30;11.32;;;13.10;99.90;;;;;;5054627;28;20079;-64
2022/04/23 06:28:43;;;;;;;21.90;11.57;;;13.20;99.90;;;;;;5042200;28;20048;-67
2022/04/23 06:31:09;;;;;;;19.02;10.05;;;13.30;99.90;;;;;;5052638;28;20369;-66
2022/04/23 06:33:34;;;;;;;18.02;11.05;;;13.40;99.90;;;;;;5049189;28;20367;-67
2022/04/23 06:36:00;;;;;;;21.60;12.60;;;13.60;99.90;;;;;;5053021;28;20029;-61
2022/04/23 06:38:25;;;;;;;19.13;11.07;;;13.80;99.90;;;;;;5054546;28;20024;-66
2022/04/23 06:40:51;;;;;;;19.75;11.18;;;14.00;99.90;;;;;;5055331;28;20037;-64
2022/04/23 06:43:17;;;;;;;20.45;12.05;;;14.30;99.90;;;;;;5047901;28;20042;-64
2022/04/23 06:45:43;;;;;;;16.70;10.23;;;14.60;99.90;;;;;;5054688;28;20037;-63
2022/04/23 06:48:08;;;;;;;18.42;10.52;;;14.90;99.90;;;;;;5054019;28;20021;-66
2022/04/23 06:50:35;;;;;;;17.27;10.13;;;15.30;99.90;;;;;;5044612;28;20021;-62
2022/04/23 06:53:01;;;;;;;19.08;10.00;;;15.60;99.90;;;;;;5051050;28;20143;-65
2022/04/23 06:55:27;;;;;;;17.05;9.35;;;16.00;99.90;;;;;;5046974;28;20025;-67
2022/04/23 06:57:53;;;;;;;17.23;10.73;;;16.30;99.90;;;;;;5046428;28;20021;-65
2022/04/23 07:00:21;;;;;;;16.27;9.50;;;16.60;99.90;;;;;;5037564;28;20029;-64
2022/04/23 07:02:48;;;;;;;16.05;10.10;;;16.80;99.90;;;;;;5039068;28;20519;-67
2022/04/23 07:05:13;;;;;;;18.23;10.32;;;17.00;99.90;;;;;;5053706;28;20044;-63
2022/04/23 07:07:39;;;;;;;17.50;9.38;;;17.20;99.90;;;;;;5053661;28;20453;-66
2022/04/23 07:10:05;;;;;;;17.85;10.25;;;17.30;99.90;;;;;;5054124;28;20025;-65
2022/04/23 07:12:33;;;;;;;18.45;10.43;;;17.20;99.90;;;;;;5053840;28;20021;-64
2022/04/23 07:14:59;;;;;;;18.63;10.80;;;17.20;99.90;;;;;;5035915;28;20017;-67
2022/04/23 07:17:26;;;;;;;17.70;10.45;;;17.10;99.90;;;;;;5051532;28;20123;-66
2022/04/23 07:19:55;;;;;;;14.65;9.15;;;17.10;99.90;;;;;;5053676;28;20376;-64
2022/04/23 07:22:20;;;;;;;15.75;9.52;;;16.90;99.90;;;;;;5037456;28;20092;-67
2022/04/23 07:24:50;;;;;;;19.40;11.02;;;16.70;99.90;;;;;;5049948;28;20120;-66
2022/04/23 07:27:16;;;;;;;18.58;10.70;;;16.50;99.90;;;;;;5049692;28;20069;-66
2022/04/23 07:29:41;;;;;;;19.88;11.57;;;16.30;99.90;;;;;;5046279;28;20060;-64
2022/04/23 07:32:07;;;;;;;18.33;11.52;;;16.20;99.90;;;;;;5031786;28;20028;-66
2022/04/23 07:37:29;;;;;;;18.65;10.70;;;16.20;99.90;;;;;;5042153;28;20056;-63
2022/04/23 07:39:59;;;;;;;18.77;10.85;;;16.30;99.90;;;;;;5051415;28;20079;-64
2022/04/23 07:42:28;;;;;;;17.92;11.15;;;16.40;99.90;;;;;;5054389;28;20043;-63
2022/04/23 07:44:54;;;;;;;22.25;11.45;;;16.50;99.90;;;;;;5054495;28;20113;-62
2022/04/23 07:47:20;;;;;;;19.50;10.93;;;16.60;99.90;;;;;;5052942;28;20029;-65
2022/04/23 07:49:46;;;;;;;19.02;9.95;;;16.70;99.90;;;;;;5053212;28;20035;-68
2022/04/23 07:52:12;;;;;;;19.48;10.63;;;16.80;99.90;;;;;;5054224;28;20032;-65
2022/04/23 07:54:38;;;;;;;18.05;10.95;;;17.00;99.90;;;;;;5054331;28;20017;-66
2022/04/23 07:57:07;;;;;;;16.95;10.18;;;17.20;99.90;;;;;;5051857;28;20033;-63
2022/04/23 07:59:32;;;;;;;19.58;11.15;;;17.40;99.50;;;;;;5053536;28;20024;-64
2022/04/23 08:01:58;;;;;;;14.43;9.27;;;17.60;99.40;;;;;;5046109;28;20025;-63
2022/04/23 08:04:23;;;;;;;18.05;10.48;;;18.10;98.60;;;;;;5051388;28;20044;-66
2022/04/23 08:06:49;;;;;;;17.38;10.82;;;18.60;98.20;;;;;;5053121;28;20085;-63
2022/04/23 08:09:14;;;;;;;15.95;9.52;;;19.10;97.50;;;;;;5054994;28;20083;-64
2022/04/23 08:11:40;;;;;;;17.38;10.43;;;19.60;96.40;;;;;;5051904;28;20024;-65
2022/04/23 08:14:06;;;;;;;17.45;10.23;;;20.10;95.70;;;;;;5052672;28;20029;-63
2022/04/23 08:16:32;;;;;;;17.00;10.63;;;20.50;94.90;;;;;;5052855;28;20031;-64
2022/04/23 08:18:57;;;;;;;18.42;10.10;;;20.80;94.50;;;;;;5054248;28;20453;-66
2022/04/23 08:21:23;;;;;;;19.60;11.85;;;21.30;93.60;;;;;;5052187;28;20053;-66
2022/04/23 08:23:49;;;;;;;19.35;10.77;;;21.70;92.90;;;;;;5053569;28;20441;-65
2022/04/23 08:26:14;;;;;;;18.45;10.52;;;21.80;92.30;;;;;;5052317;28;20348;-65
2022/04/23 08:31:24;;;;;;;17.02;10.18;;;21.90;91.60;;;;;;5053823;28;20474;-67
2022/04/23 08:33:59;;;;;;;20.38;11.27;;;21.90;91.40;;;;;;5052298;28;20399;-68
2022/04/23 08:36:36;;;;;;;18.48;11.02;;;21.90;91.00;;;;;;5053971;28;20028;-64
2022/04/23 08:39:04;;;;;;;17.27;11.30;;;21.90;90.70;;;;;;5051401;28;20021;-62
2022/04/23 08:41:31;;;;;;;17.55;10.18;;;22.00;90.70;;;;;;5045387;28;20033;-65
2022/04/23 08:44:05;;;;;;;19.85;9.93;;;22.20;90.40;;;;;;5052155;28;20460;-66
2022/04/23 08:46:33;;;;;;;17.25;11.02;;;22.40;90.00;;;;;;5053046;28;20396;-64
2022/04/23 08:49:11;;;;;;;18.55;10.82;;;22.40;89.50;;;;;;5041705;28;20045;-67
2022/04/23 08:51:38;;;;;;;18.48;10.57;;;22.40;89.60;;;;;;5033452;28;20029;-64
2022/04/23 08:54:07;;;;;;;18.38;10.82;;;22.60;88.50;;;;;;5033582;28;20052;-64
2022/04/23 08:56:34;;;;;;;16.20;10.18;;;22.40;88.60;;;;;;5045157;28;20060;-66
2022/04/23 08:59:00;;;;;;;16.52;10.73;;;22.40;88.10;;;;;;5051870;28;20025;-64
2022/04/23 09:01:30;;;;;;;17.20;9.93;;;22.70;87.80;;;;;;5034228;28;20083;-67
2022/04/23 09:03:56;;;;;;;16.80;9.98;;;22.90;87.40;;;;;;5033331;28;20365;-62
2022/04/23 09:06:21;;;;;;;15.60;10.20;;;23.00;86.60;;;;;;5033568;28;20026;-68
2022/04/23 09:09:13;;;;;;;15.63;9.70;;;23.10;86.60;;;;;;5033289;28;20021;-66
2022/04/23 09:11:41;;;;;;;17.10;10.30;;;23.10;86.60;;;;;;5038093;28;20112;-65
2022/04/23 09:14:08;;;;;;;18.70;10.10;;;23.00;86.70;;;;;;5053259;28;20044;-69
2022/04/23 09:25:06;;;;;;;19.00;10.70;;;24.30;81.70;;;;;;5035729;28;20483;-65
2022/04/23 09:27:34;;;;;;;17.92;10.50;;;24.30;80.90;;;;;;5051588;28;20477;-66
2022/04/23 09:30:04;;;;;;;17.98;10.82;;;24.40;80.20;;;;;;5032505;28;20419;-65
2022/04/23 09:32:30;;;;;;;17.85;10.50;;;24.50;79.90;;;;;;5034111;28;20028;-64
2022/04/23 09:35:05;;;;;;;17.02;10.70;;;24.50;79.40;;;;;;5037491;28;20365;-65
2022/04/23 09:40:27;;;;;;;20.25;10.23;;;24.20;78.90;;;;;;5055812;28;20036;-68
2022/04/23 09:42:56;;;;;;;18.33;11.15;;;23.80;79.80;;;;;;5056256;28;20021;-65
2022/04/23 09:45:28;;;;;;;17.90;10.73;;;23.70;79.50;;;;;;5037706;28;20061;-67
2022/04/23 09:48:03;;;;;;;18.58;10.55;;;23.60;79.40;;;;;;5037112;28;20021;-63
2022/04/23 09:50:36;;;;;;;17.80;9.70;;;23.60;79.10;;;;;;5056089;28;20028;-63
2022/04/23 09:53:19;;;;;;;16.48;10.18;;;23.50;79.60;;;;;;5055977;28;20051;-62
2022/04/23 09:55:46;;;;;;;17.17;10.75;;;23.70;80.00;;;;;;5036800;28;20017;-64
2022/04/23 09:58:13;;;;;;;19.10;11.23;;;23.90;78.90;;;;;;5051376;28;20021;-67
2022/04/23 10:00:40;;;;;;;21.88;12.10;;;24.00;78.30;;;;;;5045301;28;20072;-66
2022/04/23 10:03:07;;;;;;;16.92;10.43;;;24.00;78.10;;;;;;5037462;28;20040;-67
2022/04/23 10:05:39;;;;;;;18.83;11.43;;;24.10;78.00;;;;;;5042522;28;20098;-66
2022/04/23 10:08:11;;;;;;;22.27;12.05;;;24.40;77.10;;;;;;5036745;28;20029;-67
2022/04/23 10:10:42;;;;;;;19.17;11.43;;;24.70;76.20;;;;;;5050832;28;20032;-66
2022/04/23 10:13:10;;;;;;;18.90;11.15;;;24.70;75.50;;;;;;5054942;28;20033;-66
2022/04/23 10:15:37;;;;;;;19.80;10.98;;;24.90;75.10;;;;;;5054894;28;20032;-64
2022/04/23 10:18:07;;;;;;;23.95;11.75;;;25.10;74.20;;;;;;5053746;28;20013;-67
2022/04/23 10:20:34;;;;;;;18.52;12.25;;;25.10;74.20;;;;;;5056234;28;20033;-65
2022/04/23 10:23:17;;;;;;;21.40;12.65;;;25.10;74.00;;;;;;5044843;28;20027;-64
2022/04/23 10:26:24;;;;;;;17.85;11.82;;;25.00;73.80;;;;;;5051189;28;20013;-62
2022/04/23 10:28:51;;;;;;;19.42;11.70;;;24.70;74.20;;;;;;5033944;28;20103;-65
2022/04/23 10:31:17;;;;;;;20.55;12.20;;;24.90;73.80;;;;;;5049853;28;20029;-64
2022/04/23 10:33:50;;;;;;;19.33;12.35;;;25.10;73.80;;;;;;5058486;28;20027;-66
2022/04/23 10:36:16;;;;;;;20.55;11.40;;;25.40;73.50;;;;;;5054211;28;20013;-64
2022/04/23 10:38:45;;;;;;;19.85;11.65;;;25.80;72.00;;;;;;5060734;28;20098;-65
2022/04/23 10:41:13;;;;;;;19.77;11.38;;;25.90;71.40;;;;;;5059945;28;20032;-65
2022/04/23 10:43:59;;;;;;;18.23;12.00;;;26.00;71.10;;;;;;5075028;28;20027;-63
2022/04/23 10:46:37;;;;;;;21.73;12.02;;;26.10;71.20;;;;;;5070990;28;20029;-66
2022/04/23 10:49:15;;;;;;;18.40;11.57;;;26.60;70.30;;;;;;5035617;28;20034;-64
2022/04/23 10:51:45;;;;;;;20.75;12.00;;;26.90;69.60;;;;;;5049109;28;20028;-65
2022/04/23 10:54:10;;;;;;;17.60;12.05;;;26.90;69.30;;;;;;5035860;28;20026;-65
2022/04/23 10:56:36;;;;;;;20.30;12.77;;;27.00;68.70;;;;;;5038757;28;20079;-63
2022/04/23 10:59:02;;;;;;;19.83;12.32;;;26.90;68.50;;;;;;5047211;28;20025;-64
2022/04/23 11:01:36;;;;;;;18.90;12.70;;;27.00;68.50;;;;;;5053100;28;20552;-66
2022/04/23 11:04:04;;;;;;;20.13;11.93;;;27.00;68.10;;;;;;5035553;28;20026;-65
2022/04/23 11:12:30;;;;;;;19.40;12.07;;;26.90;67.90;;;;;;5047448;28;20046;-66
2022/04/23 11:14:56;;;;;;;24.92;12.68;;;26.90;67.30;;;;;;5054579;28;20021;-67
2022/04/23 11:17:33;;;;;;;19.90;12.75;;;26.90;67.20;;;;;;5044125;28;20053;-66
2022/04/23 11:19:59;;;;;;;20.40;13.20;;;26.60;67.90;;;;;;5043358;28;20393;-63
2022/04/23 11:22:26;;;;;;;20.58;12.60;;;26.60;67.90;;;;;;5040568;28;20028;-66
2022/04/23 11:24:53;;;;;;;20.92;13.07;;;26.70;67.00;;;;;;5038383;28;20032;-64
2022/04/23 11:27:26;;;;;;;20.60;13.48;;;26.30;67.20;;;;;;5040476;28;20133;-66
2022/04/23 11:29:52;;;;;;;21.83;13.52;;;25.50;68.30;;;;;;5041857;28;20030;-63
2022/04/23 11:32:28;;;;;;;21.70;13.75;;;24.90;68.60;;;;;;5043095;28;20049;-66
2022/04/23 11:35:03;;;;;;;21.05;13.23;;;24.50;70.10;;;;;;5042443;28;20033;-65
2022/04/23 11:37:30;;;;;;;20.90;12.95;;;24.50;70.70;;;;;;5051761;28;20039;-65
2022/04/23 11:40:13;;;;;;;19.55;13.57;;;25.00;70.00;;;;;;5048340;28;20051;-63
2022/04/23 11:42:43;;;;;;;22.27;12.52;;;25.30;69.30;;;;;;5039443;28;20362;-66
2022/04/23 11:45:10;;;;;;;21.67;12.98;;;25.10;69.70;;;;;;5041125;28;20052;-63
2022/04/23 11:47:36;;;;;;;23.13;13.20;;;24.60;69.40;;;;;;5056458;28;20037;-66
2022/04/23 11:50:14;;;;;;;22.40;14.18;;;24.50;69.60;;;;;;5047306;28;20028;-67
2022/04/23 11:52:41;;;;;;;23.50;13.50;;;24.70;70.60;;;;;;5043767;28;20027;-65
2022/04/23 11:55:18;;;;;;;22.05;13.23;;;25.10;69.40;;;;;;5040865;28;20032;-63
2022/04/23 11:57:58;;;;;;;20.45;12.43;;;25.60;68.40;;;;;;5040460;28;20466;-66
2022/04/23 12:00:24;;;;;;;22.83;11.82;;;26.10;68.20;;;;;;5044886;28;20041;-62
2022/04/23 12:02:51;;;;;;;21.70;12.60;;;26.40;67.20;;;;;;5044948;28;20024;-63
2022/04/23 12:05:25;;;;;;;21.45;12.75;;;27.20;66.90;;;;;;5041198;28;20025;-64
2022/04/23 12:07:51;;;;;;;19.38;13.43;;;27.70;65.00;;;;;;5052673;28;20029;-65
2022/04/23 12:10:26;;;;;;;20.15;13.35;;;27.80;64.80;;;;;;5046863;28;20032;-63
2022/04/23 12:12:52;;;;;;;20.08;13.27;;;27.90;64.60;;;;;;5037836;28;20456;-63
2022/04/23 12:15:21;;;;;;;22.42;12.68;;;28.10;63.80;;;;;;5051883;28;20449;-63
2022/04/23 12:17:54;;;;;;;19.33;12.45;;;28.00;64.10;;;;;;5045074;28;20040;-63
2022/04/23 12:20:22;;;;;;;20.40;13.15;;;28.00;63.80;;;;;;5046050;28;21108;-64
2022/04/23 12:23:01;;;;;;;21.58;13.15;;;28.20;63.70;;;;;;5047856;28;20028;-64
2022/04/23 12:25:28;;;;;;;20.05;12.77;;;28.50;63.00;;;;;;5051630;28;20029;-64
2022/04/23 12:28:01;;;;;;;19.92;12.77;;;28.90;62.80;;;;;;5051853;28;20060;-63
2022/04/23 12:41:59;;;;;;;19.83;12.30;;;27.80;62.10;;;;;;5056766;28;20131;-63
2022/04/23 12:44:32;;;;;;;21.33;13.30;;;27.30;62.20;;;;;;5047392;28;20114;-63
2022/04/23 12:47:06;;;;;;;22.90;12.77;;;27.20;62.30;;;;;;5041607;28;20460;-63
2022/04/23 12:49:50;;;;;;;18.83;11.70;;;27.10;62.30;;;;;;5050713;28;20031;-63
2022/04/23 12:52:45;;;;;;;23.75;13.13;;;26.90;62.40;;;;;;5043694;28;20021;-63
2022/04/23 12:55:22;;;;;;;20.50;11.80;;;26.60;62.60;;;;;;5045396;28;20058;-62
2022/04/23 12:57:51;;;;;;;19.77;12.32;;;26.20;62.70;;;;;;5039384;28;20036;-64
2022/04/23 13:00:20;;;;;;;20.50;11.77;;;25.90;62.80;;;;;;5045927;28;20044;-63
2022/04/23 13:02:53;;;;;;;22.45;12.88;;;25.60;63.60;;;;;;5048212;28;20399;-64
2022/04/23 13:05:19;;;;;;;21.60;12.52;;;25.40;64.10;;;;;;5052474;28;20021;-63